createdAt,value
2023-03-02T00:01:12.217Z,958.99
2023-03-02T00:02:12.339Z,958.95
2023-03-02T00:04:12.228Z,958.94
2023-03-02T00:05:12.273Z,958.96
2023-03-02T00:06:12.186Z,958.88
2023-03-02T00:07:12.301Z,958.94
2023-03-02T00:08:12.307Z,958.92
2023-03-02T00:10:12.191Z,958.93
2023-03-02T00:11:12.225Z,958.96
2023-03-02T00:12:12.218Z,958.98
2023-03-02T00:13:12.204Z,958.93
2023-03-02T00:14:12.226Z,958.95
2023-03-02T00:15:12.224Z,958.94
2023-03-02T00:16:12.373Z,958.93
2023-03-02T00:17:12.280Z,958.89
2023-03-02T00:18:12.275Z,958.96
2023-03-02T00:19:12.421Z,958.91
2023-03-02T00:20:12.289Z,958.92
2023-03-02T00:21:12.343Z,958.88
2023-03-02T00:23:12.359Z,958.87
2023-03-02T00:25:12.281Z,958.89
2023-03-02T00:27:12.299Z,958.88
2023-03-02T00:28:12.297Z,958.92
2023-03-02T00:29:12.299Z,958.94
2023-03-02T00:30:12.248Z,958.86
2023-03-02T00:32:12.303Z,958.87
2023-03-02T00:33:12.380Z,958.9
2023-03-02T00:34:12.242Z,958.92
2023-03-02T00:35:12.370Z,958.91
2023-03-02T00:36:12.405Z,958.94
2023-03-02T00:37:12.267Z,958.96
2023-03-02T00:38:12.263Z,958.93
2023-03-02T00:41:12.325Z,958.92
2023-03-02T00:42:12.261Z,958.87
2023-03-02T00:43:12.264Z,958.91
2023-03-02T00:44:12.415Z,958.92
2023-03-02T00:45:12.408Z,958.94
2023-03-02T00:47:12.290Z,958.87
2023-03-02T00:48:12.277Z,958.84
2023-03-02T00:50:12.308Z,958.82
2023-03-02T00:52:12.284Z,958.81
2023-03-02T00:53:12.339Z,958.8
2023-03-02T00:54:12.291Z,958.82
2023-03-02T00:55:12.284Z,958.78
2023-03-02T00:56:12.309Z,958.79
2023-03-02T00:57:12.288Z,958.76
2023-03-02T00:58:12.360Z,958.72
2023-03-02T00:59:12.317Z,958.7
2023-03-02T01:00:12.307Z,958.68
2023-03-02T01:01:12.486Z,958.66
2023-03-02T01:02:12.372Z,958.62
2023-03-02T01:04:12.391Z,958.59
2023-03-02T01:05:12.347Z,958.61
2023-03-02T01:06:12.316Z,958.56
2023-03-02T01:07:12.307Z,958.58
2023-03-02T01:08:12.326Z,958.63
2023-03-02T01:10:12.314Z,958.61
2023-03-02T01:11:12.449Z,958.63
2023-03-02T01:12:12.334Z,958.64
2023-03-02T01:13:12.598Z,958.62
2023-03-02T01:14:12.338Z,958.6
2023-03-02T01:15:12.332Z,958.55
2023-03-02T01:16:12.392Z,958.54
2023-03-02T01:17:12.346Z,958.5
2023-03-02T01:18:13.137Z,958.54
2023-03-02T01:19:12.514Z,958.51
2023-03-02T01:20:12.470Z,958.47
2023-03-02T01:21:12.353Z,958.48
2023-03-02T01:22:12.366Z,958.49
2023-03-02T01:23:12.353Z,958.48
2023-03-02T01:24:12.362Z,958.47
2023-03-02T01:26:12.461Z,958.46
2023-03-02T01:27:12.372Z,958.44
2023-03-02T01:28:12.371Z,958.41
2023-03-02T01:29:12.376Z,958.38
2023-03-02T01:31:12.481Z,958.4
2023-03-02T01:32:12.420Z,958.42
2023-03-02T01:34:12.389Z,958.38
2023-03-02T01:36:12.401Z,958.39
2023-03-02T01:37:12.396Z,958.38
2023-03-02T01:38:12.549Z,958.4
2023-03-02T01:39:12.405Z,958.37
2023-03-02T01:40:12.413Z,958.4
2023-03-02T01:41:12.501Z,958.37
2023-03-02T01:43:12.526Z,958.36
2023-03-02T01:44:12.511Z,958.33
2023-03-02T01:45:12.410Z,958.32
2023-03-02T01:46:12.479Z,958.33
2023-03-02T01:47:12.415Z,958.32
2023-03-02T01:48:12.428Z,958.31
2023-03-02T01:49:12.417Z,958.34
2023-03-02T01:50:12.411Z,958.37
2023-03-02T01:51:12.432Z,958.31
2023-03-02T01:52:12.420Z,958.34
2023-03-02T01:53:12.426Z,958.29
2023-03-02T01:54:12.432Z,958.27
2023-03-02T01:55:12.445Z,958.25
2023-03-02T01:56:12.428Z,958.27
2023-03-02T01:57:12.573Z,958.22
2023-03-02T01:59:12.518Z,958.21
2023-03-02T02:00:13.806Z,958.22
2023-03-02T02:01:12.473Z,958.21
2023-03-02T02:02:12.448Z,958.2
2023-03-02T02:03:12.594Z,958.14
2023-03-02T02:04:12.480Z,958.16
2023-03-02T02:05:12.452Z,958.15
2023-03-02T02:07:12.586Z,958.14
2023-03-02T02:08:12.484Z,958.15
2023-03-02T02:09:12.477Z,958.12
2023-03-02T02:11:12.467Z,958.09
2023-03-02T02:12:12.467Z,958.08
2023-03-02T02:13:12.467Z,958.06
2023-03-02T02:15:12.493Z,957.98
2023-03-02T02:16:12.529Z,958
2023-03-02T02:17:12.572Z,958.02
2023-03-02T02:18:12.502Z,958.05
2023-03-02T02:19:12.496Z,958.04
2023-03-02T02:20:12.480Z,958.06
2023-03-02T02:22:12.604Z,958.04
2023-03-02T02:23:12.500Z,958.05
2023-03-02T02:24:12.489Z,958.06
2023-03-02T02:25:12.516Z,958.1
2023-03-02T02:26:12.652Z,958.06
2023-03-02T02:27:12.501Z,958.01
2023-03-02T02:28:12.502Z,958
2023-03-02T02:29:12.522Z,957.97
2023-03-02T02:30:12.511Z,957.96
2023-03-02T02:31:12.519Z,957.92
2023-03-02T02:32:12.725Z,957.93
2023-03-02T02:33:12.524Z,957.94
2023-03-02T02:34:12.525Z,957.95
2023-03-02T02:35:12.541Z,957.89
2023-03-02T02:36:12.553Z,957.87
2023-03-02T02:37:12.530Z,957.88
2023-03-02T02:38:12.670Z,957.89
2023-03-02T02:40:12.670Z,957.88
2023-03-02T02:42:12.661Z,957.93
2023-03-02T02:43:12.610Z,957.88
2023-03-02T02:44:12.534Z,957.86
2023-03-02T02:46:12.622Z,957.87
2023-03-02T02:47:12.668Z,957.89
2023-03-02T02:48:12.548Z,957.85
2023-03-02T02:49:12.552Z,957.88
2023-03-02T02:50:12.678Z,957.87
2023-03-02T02:51:12.579Z,957.82
2023-03-02T02:52:12.559Z,957.86
2023-03-02T02:53:12.580Z,957.83
2023-03-02T02:54:12.569Z,957.91
2023-03-02T02:55:12.570Z,957.85
2023-03-02T02:56:12.562Z,957.87
2023-03-02T02:57:12.567Z,957.84
2023-03-02T03:00:12.654Z,957.82
2023-03-02T03:02:12.741Z,957.84
2023-03-02T03:03:12.609Z,957.79
2023-03-02T03:05:12.606Z,957.82
2023-03-02T03:06:12.595Z,957.84
2023-03-02T03:07:12.594Z,957.86
2023-03-02T03:08:12.613Z,957.85
2023-03-02T03:09:12.601Z,957.84
2023-03-02T03:11:12.608Z,957.87
2023-03-02T03:12:12.611Z,957.88
2023-03-02T03:14:12.646Z,957.89
2023-03-02T03:15:12.621Z,957.91
2023-03-02T03:16:12.617Z,957.86
2023-03-02T03:18:12.675Z,957.9
2023-03-02T03:19:12.628Z,957.86
2023-03-02T03:20:12.629Z,957.87
2023-03-02T03:21:12.640Z,957.83
2023-03-02T03:22:12.644Z,957.84
2023-03-02T03:23:12.723Z,957.82
2023-03-02T03:25:12.783Z,957.79
2023-03-02T03:26:12.659Z,957.84
2023-03-02T03:27:12.794Z,957.81
2023-03-02T03:28:12.641Z,957.83
2023-03-02T03:29:12.636Z,957.81
2023-03-02T03:30:12.663Z,957.84
2023-03-02T03:31:12.723Z,957.85
2023-03-02T03:32:12.791Z,957.87
2023-03-02T03:33:12.665Z,957.88
2023-03-02T03:34:12.666Z,957.89
2023-03-02T03:35:12.653Z,957.94
2023-03-02T03:36:12.708Z,957.88
2023-03-02T03:37:12.782Z,957.91
2023-03-02T03:38:12.748Z,957.92
2023-03-02T03:39:12.838Z,957.97
2023-03-02T03:40:12.661Z,957.94
2023-03-02T03:41:12.666Z,957.99
2023-03-02T03:42:12.683Z,957.97
2023-03-02T03:43:12.773Z,957.98
2023-03-02T03:45:12.848Z,957.99
2023-03-02T03:46:12.897Z,957.98
2023-03-02T03:47:12.702Z,957.96
2023-03-02T03:50:12.795Z,957.94
2023-03-02T03:51:12.711Z,957.92
2023-03-02T03:52:12.689Z,957.96
2023-03-02T03:53:12.697Z,957.98
2023-03-02T03:54:12.822Z,957.96
2023-03-02T03:55:12.699Z,957.98
2023-03-02T03:56:12.707Z,957.97
2023-03-02T03:57:12.718Z,957.95
2023-03-02T03:59:12.717Z,957.94
2023-03-02T04:00:12.724Z,957.91
2023-03-02T04:01:12.788Z,957.93
2023-03-02T04:02:12.808Z,957.86
2023-03-02T04:03:12.736Z,957.9
2023-03-02T04:04:12.726Z,957.89
2023-03-02T04:05:12.932Z,957.92
2023-03-02T04:06:12.721Z,957.95
2023-03-02T04:07:12.730Z,957.96
2023-03-02T04:08:12.876Z,957.94
2023-03-02T04:09:12.735Z,957.95
2023-03-02T04:11:12.790Z,957.94
2023-03-02T04:12:12.757Z,957.96
2023-03-02T04:15:12.845Z,957.98
2023-03-02T04:16:12.881Z,957.96
2023-03-02T04:19:12.939Z,958
2023-03-02T04:20:12.782Z,957.98
2023-03-02T04:21:12.800Z,958.02
2023-03-02T04:22:12.761Z,958.05
2023-03-02T04:23:12.964Z,958.03
2023-03-02T04:24:12.858Z,958.04
2023-03-02T04:26:12.807Z,958.05
2023-03-02T04:28:12.782Z,958.03
2023-03-02T04:29:12.798Z,958.06
2023-03-02T04:30:12.874Z,958.07
2023-03-02T04:31:12.861Z,958.08
2023-03-02T04:33:12.821Z,958.14
2023-03-02T04:35:12.895Z,958.12
2023-03-02T04:36:12.810Z,958.1
2023-03-02T04:37:12.801Z,958.12
2023-03-02T04:39:12.958Z,958.15
2023-03-02T04:43:12.881Z,958.2
2023-03-02T04:44:12.856Z,958.19
2023-03-02T04:46:12.928Z,958.17
2023-03-02T04:47:12.944Z,958.21
2023-03-02T04:48:12.926Z,958.19
2023-03-02T04:49:12.877Z,958.21
2023-03-02T04:50:12.947Z,958.19
2023-03-02T04:51:12.850Z,958.16
2023-03-02T04:53:12.858Z,958.12
2023-03-02T04:55:13.069Z,958.1
2023-03-02T04:56:12.870Z,958.12
2023-03-02T04:57:12.855Z,958.14
2023-03-02T05:00:12.975Z,958.15
2023-03-02T05:01:13.029Z,958.13
2023-03-02T05:02:12.937Z,958.16
2023-03-02T05:03:12.886Z,958.11
2023-03-02T05:04:12.901Z,958.12
2023-03-02T05:05:12.881Z,958.08
2023-03-02T05:06:12.899Z,958.09
2023-03-02T05:07:12.898Z,958.06
2023-03-02T05:08:12.949Z,958.08
2023-03-02T05:09:12.879Z,958.12
2023-03-02T05:10:12.886Z,958.11
2023-03-02T05:11:12.886Z,958.07
2023-03-02T05:13:12.885Z,958.09
2023-03-02T05:15:12.884Z,958.07
2023-03-02T05:16:13.010Z,958.08
2023-03-02T05:17:12.903Z,958.09
2023-03-02T05:18:12.950Z,958.08
2023-03-02T05:19:13.044Z,958.1
2023-03-02T05:20:12.905Z,958.12
2023-03-02T05:22:13.058Z,958.19
2023-03-02T05:23:12.928Z,958.17
2023-03-02T05:24:12.920Z,958.22
2023-03-02T05:25:12.917Z,958.24
2023-03-02T05:26:13.017Z,958.22
2023-03-02T05:27:13.067Z,958.25
2023-03-02T05:28:13.064Z,958.27
2023-03-02T05:29:12.945Z,958.28
2023-03-02T05:30:12.927Z,958.27
2023-03-02T05:31:12.964Z,958.3
2023-03-02T05:32:13.037Z,958.31
2023-03-02T05:33:13.066Z,958.33
2023-03-02T05:34:12.938Z,958.35
2023-03-02T05:35:14.198Z,958.32
2023-03-02T05:36:13.259Z,958.38
2023-03-02T05:37:13.197Z,958.34
2023-03-02T05:38:12.981Z,958.35
2023-03-02T05:39:13.110Z,958.46
2023-03-02T05:40:12.965Z,958.45
2023-03-02T05:41:12.962Z,958.44
2023-03-02T05:42:13.148Z,958.46
2023-03-02T05:43:13.090Z,958.45
2023-03-02T05:44:12.977Z,958.46
2023-03-02T05:45:12.948Z,958.47
2023-03-02T05:46:13.080Z,958.45
2023-03-02T05:47:13.014Z,958.47
2023-03-02T05:49:12.982Z,958.48
2023-03-02T05:50:12.979Z,958.51
2023-03-02T05:51:13.094Z,958.54
2023-03-02T05:52:13.098Z,958.51
2023-03-02T05:53:12.988Z,958.49
2023-03-02T05:55:13.167Z,958.54
2023-03-02T05:57:13.049Z,958.57
2023-03-02T05:58:13.037Z,958.58
2023-03-02T05:59:13.148Z,958.6
2023-03-02T06:00:13.011Z,958.63
2023-03-02T06:01:15.351Z,958.64
2023-03-02T06:02:13.318Z,958.66
2023-03-02T06:03:13.172Z,958.62
2023-03-02T06:04:13.031Z,958.66
2023-03-02T06:05:13.016Z,958.7
2023-03-02T06:08:13.103Z,958.75
2023-03-02T06:09:13.023Z,958.77
2023-03-02T06:10:13.024Z,958.78
2023-03-02T06:11:13.019Z,958.76
2023-03-02T06:12:13.124Z,958.75
2023-03-02T06:13:13.091Z,958.76
2023-03-02T06:14:13.046Z,958.74
2023-03-02T06:15:13.039Z,958.75
2023-03-02T06:16:13.065Z,958.78
2023-03-02T06:17:13.054Z,958.8
2023-03-02T06:18:13.033Z,958.83
2023-03-02T06:19:13.217Z,958.92
2023-03-02T06:20:13.041Z,958.94
2023-03-02T06:21:13.059Z,958.98
2023-03-02T06:22:13.058Z,959.01
2023-03-02T06:23:13.052Z,959
2023-03-02T06:24:13.042Z,958.99
2023-03-02T06:25:13.083Z,959.01
2023-03-02T06:26:13.072Z,959
2023-03-02T06:27:13.134Z,959.03
2023-03-02T06:28:13.047Z,958.99
2023-03-02T06:29:13.301Z,959.04
2023-03-02T06:30:13.105Z,959.07
2023-03-02T06:31:13.194Z,959.1
2023-03-02T06:32:13.227Z,959.06
2023-03-02T06:33:13.131Z,959.02
2023-03-02T06:34:13.114Z,959.05
2023-03-02T06:35:13.083Z,959.08
2023-03-02T06:36:13.221Z,959.07
2023-03-02T06:37:13.082Z,959.08
2023-03-02T06:38:13.092Z,959.11
2023-03-02T06:39:13.161Z,959.1
2023-03-02T06:40:13.221Z,959.12
2023-03-02T06:41:13.092Z,959.16
2023-03-02T06:42:13.255Z,959.18
2023-03-02T06:43:13.119Z,959.17
2023-03-02T06:44:13.095Z,959.21
2023-03-02T06:45:13.141Z,959.23
2023-03-02T06:46:13.156Z,959.2
2023-03-02T06:47:13.186Z,959.24
2023-03-02T06:49:14.214Z,959.25
2023-03-02T06:50:13.148Z,959.23
2023-03-02T06:51:13.120Z,959.28
2023-03-02T06:52:13.294Z,959.3
2023-03-02T06:53:13.213Z,959.31
2023-03-02T06:54:13.166Z,959.29
2023-03-02T06:55:13.132Z,959.3
2023-03-02T06:56:13.225Z,959.32
2023-03-02T06:57:13.136Z,959.33
2023-03-02T06:58:13.130Z,959.35
2023-03-02T06:59:13.208Z,959.39
2023-03-02T07:01:13.302Z,959.41
2023-03-02T07:02:13.210Z,959.47
2023-03-02T07:03:13.258Z,959.42
2023-03-02T07:04:13.137Z,959.48
2023-03-02T07:05:13.230Z,959.49
2023-03-02T07:06:13.155Z,959.51
2023-03-02T07:07:13.155Z,959.52
2023-03-02T07:08:13.205Z,959.51
2023-03-02T07:09:13.164Z,959.54
2023-03-02T07:10:13.191Z,959.56
2023-03-02T07:11:13.155Z,959.52
2023-03-02T07:12:13.287Z,959.54
2023-03-02T07:13:13.268Z,959.56
2023-03-02T07:14:13.219Z,959.57
2023-03-02T07:15:13.298Z,959.61
2023-03-02T07:16:13.182Z,959.57
2023-03-02T07:17:13.172Z,959.6
2023-03-02T07:18:13.225Z,959.59
2023-03-02T07:19:13.204Z,959.62
2023-03-02T07:20:13.237Z,959.61
2023-03-02T07:21:13.294Z,959.63
2023-03-02T07:22:13.178Z,959.64
2023-03-02T07:23:13.188Z,959.62
2023-03-02T07:24:13.175Z,959.63
2023-03-02T07:25:13.273Z,959.64
2023-03-02T07:26:13.208Z,959.63
2023-03-02T07:27:13.197Z,959.65
2023-03-02T07:29:13.206Z,959.68
2023-03-02T07:30:13.248Z,959.7
2023-03-02T07:32:13.377Z,959.69
2023-03-02T07:33:13.234Z,959.7
2023-03-02T07:35:13.249Z,959.69
2023-03-02T07:36:13.220Z,959.73
2023-03-02T07:37:13.314Z,959.74
2023-03-02T07:38:13.218Z,959.76
2023-03-02T07:39:13.218Z,959.77
2023-03-02T07:40:13.232Z,959.78
2023-03-02T07:41:13.220Z,959.8
2023-03-02T07:42:13.225Z,959.79
2023-03-02T07:43:13.306Z,959.83
2023-03-02T07:44:13.366Z,959.86
2023-03-02T07:45:13.229Z,959.87
2023-03-02T07:47:13.312Z,959.9
2023-03-02T07:49:13.368Z,959.91
2023-03-02T07:50:13.238Z,959.96
2023-03-02T07:51:13.254Z,959.94
2023-03-02T07:52:13.288Z,959.96
2023-03-02T07:53:13.384Z,959.92
2023-03-02T07:54:13.266Z,959.94
2023-03-02T07:55:13.277Z,959.96
2023-03-02T07:56:13.393Z,959.94
2023-03-02T07:57:13.283Z,959.98
2023-03-02T08:00:13.357Z,959.97
2023-03-02T08:01:13.288Z,959.99
2023-03-02T08:02:13.309Z,959.97
2023-03-02T08:03:13.357Z,960.05
2023-03-02T08:04:13.298Z,960.07
2023-03-02T08:05:13.274Z,960.06
2023-03-02T08:06:13.304Z,960.08
2023-03-02T08:07:13.294Z,960.07
2023-03-02T08:08:13.302Z,960.05
2023-03-02T08:09:15.164Z,960.03
2023-03-02T08:10:13.302Z,960.05
2023-03-02T08:11:13.406Z,960.03
2023-03-02T08:12:13.333Z,960.04
2023-03-02T08:13:13.347Z,960.03
2023-03-02T08:14:13.287Z,960.04
2023-03-02T08:15:13.316Z,960.06
2023-03-02T08:16:13.548Z,960.09
2023-03-02T08:17:13.317Z,960.12
2023-03-02T08:18:13.305Z,960.07
2023-03-02T08:19:13.476Z,960.05
2023-03-02T08:20:13.317Z,960.1
2023-03-02T08:21:13.320Z,960.07
2023-03-02T08:22:13.454Z,960.08
2023-03-02T08:23:13.334Z,960.1
2023-03-02T08:24:13.321Z,960.08
2023-03-02T08:25:13.468Z,960.09
2023-03-02T08:26:14.835Z,960.08
2023-03-02T08:27:13.335Z,960.12
2023-03-02T08:28:13.395Z,960.16
2023-03-02T08:30:13.439Z,960.18
2023-03-02T08:31:13.418Z,960.13
2023-03-02T08:32:13.465Z,960.15
2023-03-02T08:33:13.492Z,960.16
2023-03-02T08:34:13.338Z,960.13
2023-03-02T08:35:13.478Z,960.18
2023-03-02T08:36:13.504Z,960.11
2023-03-02T08:39:13.447Z,960.09
2023-03-02T08:41:13.477Z,960.07
2023-03-02T08:42:13.553Z,960.12
2023-03-02T08:43:13.380Z,960.1
2023-03-02T08:44:13.387Z,960
2023-03-02T08:45:13.390Z,960.1
2023-03-02T08:46:13.550Z,960.09
2023-03-02T08:47:13.390Z,960.1
2023-03-02T08:48:13.375Z,960.17
2023-03-02T08:49:13.391Z,960.08
2023-03-02T08:50:13.457Z,960.07
2023-03-02T08:51:13.402Z,960.11
2023-03-02T08:52:13.499Z,960.07
2023-03-02T08:53:13.459Z,960
2023-03-02T08:54:13.474Z,960.08
2023-03-02T08:55:13.448Z,960.13
2023-03-02T08:56:13.390Z,960.21
2023-03-02T08:57:13.536Z,960.18
2023-03-02T08:58:13.609Z,960.14
2023-03-02T08:59:13.579Z,960.21
2023-03-02T09:01:13.736Z,960.19
2023-03-02T09:02:13.591Z,960.2
2023-03-02T09:04:13.500Z,960.23
2023-03-02T09:05:13.501Z,960.22
2023-03-02T09:06:13.419Z,960.24
2023-03-02T09:08:13.478Z,960.26
2023-03-02T09:09:13.447Z,960.22
2023-03-02T09:10:13.419Z,960.26
2023-03-02T09:11:13.618Z,960.18
2023-03-02T09:12:13.447Z,960.2
2023-03-02T09:14:13.583Z,960.24
2023-03-02T09:15:13.442Z,960.21
2023-03-02T09:16:13.491Z,960.26
2023-03-02T09:17:13.444Z,960.28
2023-03-02T09:18:13.459Z,960.25
2023-03-02T09:19:13.455Z,960.23
2023-03-02T09:20:13.443Z,960.28
2023-03-02T09:21:13.479Z,960.29
2023-03-02T09:22:13.457Z,960.25
2023-03-02T09:23:13.464Z,960.23
2023-03-02T09:24:13.572Z,960.25
2023-03-02T09:26:13.595Z,960.27
2023-03-02T09:27:13.596Z,960.23
2023-03-02T09:28:13.479Z,960.26
2023-03-02T09:29:13.502Z,960.25
2023-03-02T09:30:13.477Z,960.27
2023-03-02T09:32:13.662Z,960.29
2023-03-02T09:33:13.571Z,960.32
2023-03-02T09:34:13.497Z,960.29
2023-03-02T09:35:13.482Z,960.32
2023-03-02T09:36:13.504Z,960.38
2023-03-02T09:37:13.558Z,960.34
2023-03-02T09:38:13.492Z,960.38
2023-03-02T09:41:13.599Z,960.39
2023-03-02T09:42:13.629Z,960.37
2023-03-02T09:43:13.663Z,960.41
2023-03-02T09:44:13.522Z,960.45
2023-03-02T09:45:13.692Z,960.43
2023-03-02T09:46:13.531Z,960.45
2023-03-02T09:47:13.656Z,960.44
2023-03-02T09:48:13.582Z,960.48
2023-03-02T09:49:13.656Z,960.47
2023-03-02T09:50:13.525Z,960.49
2023-03-02T09:51:13.566Z,960.47
2023-03-02T09:52:13.519Z,960.51
2023-03-02T09:53:13.527Z,960.5
2023-03-02T09:54:13.567Z,960.51
2023-03-02T09:58:13.624Z,960.55
2023-03-02T09:59:13.651Z,960.52
2023-03-02T10:01:16.104Z,960.51
2023-03-02T10:02:13.942Z,960.54
2023-03-02T10:03:17.287Z,960.53
2023-03-02T10:04:13.880Z,960.58
2023-03-02T10:05:13.563Z,960.53
2023-03-02T10:06:13.640Z,960.56
2023-03-02T10:07:13.588Z,960.55
2023-03-02T10:08:13.558Z,960.57
2023-03-02T10:10:13.579Z,960.56
2023-03-02T10:11:13.668Z,960.59
2023-03-02T10:12:13.651Z,960.56
2023-03-02T10:13:13.700Z,960.57
2023-03-02T10:14:13.583Z,960.52
2023-03-02T10:15:13.582Z,960.57
2023-03-02T10:16:13.646Z,960.56
2023-03-02T10:17:13.580Z,960.57
2023-03-02T10:18:13.589Z,960.53
2023-03-02T10:19:13.705Z,960.57
2023-03-02T10:20:13.588Z,960.54
2023-03-02T10:21:13.591Z,960.52
2023-03-02T10:23:13.710Z,960.51
2023-03-02T10:24:13.618Z,960.57
2023-03-02T10:25:13.604Z,960.5
2023-03-02T10:27:13.701Z,960.52
2023-03-02T10:28:13.635Z,960.55
2023-03-02T10:29:13.605Z,960.52
2023-03-02T10:30:13.636Z,960.54
2023-03-02T10:31:13.686Z,960.53
2023-03-02T10:32:13.688Z,960.5
2023-03-02T10:33:13.615Z,960.47
2023-03-02T10:34:13.635Z,960.42
2023-03-02T10:35:13.682Z,960.47
2023-03-02T10:37:13.777Z,960.52
2023-03-02T10:38:13.737Z,960.53
2023-03-02T10:39:13.621Z,960.55
2023-03-02T10:41:13.672Z,960.52
2023-03-02T10:42:13.695Z,960.53
2023-03-02T10:43:13.650Z,960.56
2023-03-02T10:44:13.637Z,960.59
2023-03-02T10:45:13.682Z,960.56
2023-03-02T10:46:13.657Z,960.57
2023-03-02T10:47:13.659Z,960.61
2023-03-02T10:48:13.656Z,960.58
2023-03-02T10:49:13.801Z,960.6
2023-03-02T10:51:13.869Z,960.59
2023-03-02T10:52:13.697Z,960.63
2023-03-02T10:53:13.827Z,960.61
2023-03-02T10:54:13.700Z,960.62
2023-03-02T10:55:13.754Z,960.63
2023-03-02T10:58:13.774Z,960.59
2023-03-02T10:59:13.671Z,960.6
2023-03-02T11:00:13.705Z,960.61
2023-03-02T11:01:13.796Z,960.63
2023-03-02T11:02:13.690Z,960.64
2023-03-02T11:03:13.683Z,960.63
2023-03-02T11:04:13.723Z,960.6
2023-03-02T11:05:13.709Z,960.58
2023-03-02T11:06:13.830Z,960.55
2023-03-02T11:07:13.701Z,960.54
2023-03-02T11:08:13.694Z,960.55
2023-03-02T11:09:13.721Z,960.58
2023-03-02T11:11:13.893Z,960.57
2023-03-02T11:12:13.739Z,960.56
2023-03-02T11:13:13.714Z,960.6
2023-03-02T11:14:13.734Z,960.56
2023-03-02T11:15:13.707Z,960.59
2023-03-02T11:17:13.772Z,960.56
2023-03-02T11:18:13.724Z,960.57
2023-03-02T11:20:13.738Z,960.58
2023-03-02T11:21:13.886Z,960.57
2023-03-02T11:22:13.724Z,960.51
2023-03-02T11:23:13.725Z,960.54
2023-03-02T11:24:13.755Z,960.55
2023-03-02T11:25:13.736Z,960.52
2023-03-02T11:26:13.738Z,960.57
2023-03-02T11:27:13.740Z,960.59
2023-03-02T11:28:13.768Z,960.57
2023-03-02T11:29:13.773Z,960.56
2023-03-02T11:31:13.834Z,960.58
2023-03-02T11:32:13.949Z,960.53
2023-03-02T11:33:13.785Z,960.58
2023-03-02T11:34:17.785Z,960.55
2023-03-02T11:35:13.881Z,960.58
2023-03-02T11:36:13.886Z,960.57
2023-03-02T11:37:13.769Z,960.6
2023-03-02T11:38:13.894Z,960.58
2023-03-02T11:40:13.769Z,960.56
2023-03-02T11:41:13.777Z,960.57
2023-03-02T11:42:13.803Z,960.59
2023-03-02T11:43:13.798Z,960.57
2023-03-02T11:44:13.802Z,960.59
2023-03-02T11:45:13.888Z,960.61
2023-03-02T11:46:21.437Z,960.63
2023-03-02T11:47:13.947Z,960.61
2023-03-02T11:48:13.828Z,960.59
2023-03-02T11:49:13.834Z,960.61
2023-03-02T11:50:13.785Z,960.6
2023-03-02T11:51:13.864Z,960.54
2023-03-02T11:52:15.371Z,960.64
2023-03-02T11:53:14.084Z,960.63
2023-03-02T11:54:13.884Z,960.6
2023-03-02T11:56:13.961Z,960.62
2023-03-02T11:57:13.836Z,960.61
2023-03-02T11:58:13.851Z,960.6
2023-03-02T11:59:13.820Z,960.59
2023-03-02T12:00:14.022Z,960.6
2023-03-02T12:01:13.935Z,960.58
2023-03-02T12:02:13.875Z,960.59
2023-03-02T12:03:13.852Z,960.54
2023-03-02T12:04:13.855Z,960.58
2023-03-02T12:05:13.865Z,960.52
2023-03-02T12:06:13.846Z,960.54
2023-03-02T12:07:13.838Z,960.5
2023-03-02T12:08:13.844Z,960.45
2023-03-02T12:09:13.964Z,960.49
2023-03-02T12:10:13.839Z,960.46
2023-03-02T12:11:13.845Z,960.48
2023-03-02T12:12:13.850Z,960.5
2023-03-02T12:13:13.864Z,960.51
2023-03-02T12:14:13.900Z,960.48
2023-03-02T12:15:13.851Z,960.47
2023-03-02T12:16:13.878Z,960.45
2023-03-02T12:17:15.023Z,960.5
2023-03-02T12:18:14.000Z,960.47
2023-03-02T12:19:13.875Z,960.5
2023-03-02T12:20:13.868Z,960.46
2023-03-02T12:21:13.868Z,960.44
2023-03-02T12:22:13.868Z,960.4
2023-03-02T12:23:13.885Z,960.39
2023-03-02T12:24:13.878Z,960.37
2023-03-02T12:25:13.880Z,960.4
2023-03-02T12:26:13.883Z,960.39
2023-03-02T12:28:14.057Z,960.36
2023-03-02T12:29:14.012Z,960.34
2023-03-02T12:30:14.000Z,960.37
2023-03-02T12:31:13.961Z,960.39
2023-03-02T12:32:14.017Z,960.38
2023-03-02T12:33:13.913Z,960.39
2023-03-02T12:34:13.901Z,960.36
2023-03-02T12:35:14.094Z,960.35
2023-03-02T12:36:13.921Z,960.39
2023-03-02T12:37:13.910Z,960.33
2023-03-02T12:38:14.005Z,960.31
2023-03-02T12:39:13.953Z,960.29
2023-03-02T12:40:13.920Z,960.32
2023-03-02T12:43:13.942Z,960.29
2023-03-02T12:44:13.961Z,960.28
2023-03-02T12:45:13.981Z,960.31
2023-03-02T12:46:14.011Z,960.35
2023-03-02T12:47:14.255Z,960.32
2023-03-02T12:49:14.274Z,960.34
2023-03-02T12:51:14.052Z,960.32
2023-03-02T12:52:13.980Z,960.33
2023-03-02T12:53:13.963Z,960.32
2023-03-02T12:54:13.955Z,960.34
2023-03-02T12:56:14.159Z,960.32
2023-03-02T12:57:13.964Z,960.34
2023-03-02T12:58:13.965Z,960.33
2023-03-02T12:59:13.978Z,960.29
2023-03-02T13:01:14.090Z,960.3
2023-03-02T13:04:14.116Z,960.32
2023-03-02T13:05:14.055Z,960.27
2023-03-02T13:06:13.987Z,960.3
2023-03-02T13:07:14.070Z,960.26
2023-03-02T13:08:13.992Z,960.23
2023-03-02T13:09:14.085Z,960.25
2023-03-02T13:11:14.043Z,960.27
2023-03-02T13:12:14.104Z,960.28
2023-03-02T13:13:14.163Z,960.24
2023-03-02T13:14:14.142Z,960.25
2023-03-02T13:15:14.119Z,960.26
2023-03-02T13:16:14.003Z,960.27
2023-03-02T13:17:14.008Z,960.31
2023-03-02T13:19:14.005Z,960.29
2023-03-02T13:20:14.130Z,960.31
2023-03-02T13:21:14.010Z,960.32
2023-03-02T13:24:14.079Z,960.33
2023-03-02T13:25:14.037Z,960.32
2023-03-02T13:26:14.018Z,960.3
2023-03-02T13:27:14.107Z,960.27
2023-03-02T13:28:14.081Z,960.26
2023-03-02T13:29:14.034Z,960.23
2023-03-02T13:30:14.038Z,960.2
2023-03-02T13:32:14.250Z,960.21
2023-03-02T13:33:14.051Z,960.24
2023-03-02T13:34:14.190Z,960.29
2023-03-02T13:35:14.092Z,960.23
2023-03-02T13:36:14.051Z,960.21
2023-03-02T13:37:14.054Z,960.23
2023-03-02T13:38:14.134Z,960.26
2023-03-02T13:39:14.134Z,960.28
2023-03-02T13:40:14.046Z,960.26
2023-03-02T13:41:14.050Z,960.27
2023-03-02T13:42:14.068Z,960.29
2023-03-02T13:43:14.193Z,960.25
2023-03-02T13:45:14.104Z,960.24
2023-03-02T13:46:14.152Z,960.26
2023-03-02T13:48:14.086Z,960.29
2023-03-02T13:50:14.200Z,960.27
2023-03-02T13:51:14.086Z,960.28
2023-03-02T13:53:14.164Z,960.29
2023-03-02T13:54:14.093Z,960.25
2023-03-02T13:55:14.139Z,960.28
2023-03-02T13:57:14.113Z,960.27
2023-03-02T13:58:14.087Z,960.25
2023-03-02T13:59:14.162Z,960.27
2023-03-02T14:00:14.104Z,960.25
2023-03-02T14:02:14.172Z,960.26
2023-03-02T14:03:14.135Z,960.29
2023-03-02T14:04:14.181Z,960.27
2023-03-02T14:06:14.153Z,960.29
2023-03-02T14:07:14.238Z,960.28
2023-03-02T14:08:14.171Z,960.31
2023-03-02T14:09:14.129Z,960.29
2023-03-02T14:10:14.130Z,960.31
2023-03-02T14:11:14.133Z,960.3
2023-03-02T14:12:14.137Z,960.27
2023-03-02T14:13:14.137Z,960.32
2023-03-02T14:14:14.121Z,960.29
2023-03-02T14:16:14.178Z,960.25
2023-03-02T14:17:14.144Z,960.29
2023-03-02T14:18:14.144Z,960.26
2023-03-02T14:19:14.151Z,960.28
2023-03-02T14:20:14.404Z,960.29
2023-03-02T14:21:14.228Z,960.3
2023-03-02T14:22:14.159Z,960.32
2023-03-02T14:23:14.277Z,960.31
2023-03-02T14:24:14.298Z,960.29
2023-03-02T14:25:14.159Z,960.34
2023-03-02T14:26:14.186Z,960.29
2023-03-02T14:28:14.334Z,960.3
2023-03-02T14:29:14.271Z,960.28
2023-03-02T14:31:14.343Z,960.31
2023-03-02T14:32:14.233Z,960.25
2023-03-02T14:33:14.187Z,960.28
2023-03-02T14:34:14.194Z,960.25
2023-03-02T14:35:14.183Z,960.26
2023-03-02T14:36:14.191Z,960.27
2023-03-02T14:37:14.190Z,960.31
2023-03-02T14:38:14.326Z,960.29
2023-03-02T14:39:14.190Z,960.26